Time;durP1;ratioP1;P1;durP2;ratioP2;P2;SDS_P1;SDS_P2;PMS_P1;PMS_P2;Temp;Humidity;BMP_temperature;BMP_pressure;BME280_temperature;BME280_humidity;BME280_pressure;Samples;Min_cycle;Max_cycle;Signal;HPM_P1;HPM_P2
2022/03/08 00:00:46;;;;;;;20.07;15.87;;;-1.90;99.90;;;;;;5052282;28;20500;-65
2022/03/08 00:03:13;;;;;;;21.70;15.93;;;-1.80;99.90;;;;;;5052289;28;20531;-65
2022/03/08 00:05:40;;;;;;;20.53;15.50;;;-1.80;99.90;;;;;;5052085;28;20483;-65
2022/03/08 00:08:07;;;;;;;24.83;17.43;;;-1.90;99.90;;;;;;5052595;28;20509;-65
2022/03/08 00:10:34;;;;;;;23.87;18.57;;;-2.00;99.90;;;;;;5052314;28;20450;-66
2022/03/08 00:13:02;;;;;;;23.40;18.27;;;-2.00;99.90;;;;;;5052818;28;20805;-65
2022/03/08 00:15:29;;;;;;;30.17;20.80;;;-2.10;99.90;;;;;;5052239;28;20448;-65
2022/03/08 00:17:57;;;;;;;25.90;19.20;;;-2.10;99.90;;;;;;5052670;28;20527;-65
2022/03/08 00:20:24;;;;;;;25.37;18.67;;;-2.10;99.90;;;;;;5052681;28;20451;-65
2022/03/08 00:22:51;;;;;;;23.43;16.93;;;-2.20;99.90;;;;;;5052408;28;20444;-65
2022/03/08 00:25:18;;;;;;;27.37;17.60;;;-2.30;99.90;;;;;;5052026;28;20451;-65
2022/03/08 00:27:47;;;;;;;26.83;17.90;;;-2.30;99.90;;;;;;5052170;28;20891;-65
2022/03/08 00:30:17;;;;;;;28.57;19.97;;;-2.40;99.90;;;;;;5052119;28;20594;-65
2022/03/08 00:32:44;;;;;;;28.67;20.20;;;-2.50;99.90;;;;;;5052554;28;20555;-65
2022/03/08 00:35:11;;;;;;;26.20;17.73;;;-2.60;99.90;;;;;;5052232;28;20452;-65
2022/03/08 00:37:39;;;;;;;28.13;17.83;;;-2.60;99.90;;;;;;5052266;28;20444;-65
2022/03/08 00:40:09;;;;;;;22.23;16.37;;;-2.50;99.90;;;;;;5052070;28;20531;-65
2022/03/08 00:42:36;;;;;;;24.67;17.30;;;-2.50;99.90;;;;;;5052033;28;20460;-66
2022/03/08 00:45:03;;;;;;;22.60;16.33;;;-2.50;99.90;;;;;;5051759;28;20973;-65
2022/03/08 00:47:31;;;;;;;27.10;16.60;;;-2.40;99.90;;;;;;5052103;28;20859;-65
2022/03/08 00:49:58;;;;;;;20.93;15.07;;;-2.20;99.90;;;;;;5051992;28;20451;-65
2022/03/08 00:52:25;;;;;;;21.50;15.00;;;-1.90;99.90;;;;;;5051896;28;20523;-65
2022/03/08 00:54:52;;;;;;;21.47;15.00;;;-1.80;99.90;;;;;;5051502;28;20452;-65
2022/03/08 00:57:19;;;;;;;21.03;15.13;;;-1.70;99.90;;;;;;5051628;28;20446;-65
2022/03/08 00:59:46;;;;;;;18.00;13.70;;;-1.70;99.90;;;;;;5052145;28;20487;-65
2022/03/08 01:02:13;;;;;;;21.47;13.70;;;-1.70;99.90;;;;;;5051620;28;21163;-65
2022/03/08 01:04:41;;;;;;;22.77;14.90;;;-1.70;99.90;;;;;;5051003;28;20452;-65
2022/03/08 01:07:08;;;;;;;19.57;15.37;;;-1.90;99.90;;;;;;5051461;28;20494;-65
2022/03/08 01:09:35;;;;;;;18.27;14.10;;;-2.00;99.90;;;;;;5051439;28;20444;-65
2022/03/08 01:12:02;;;;;;;24.00;15.43;;;-2.10;99.90;;;;;;5051053;28;20559;-65
2022/03/08 01:14:30;;;;;;;20.40;14.80;;;-2.20;99.90;;;;;;5051107;28;20494;-65
2022/03/08 01:16:57;;;;;;;20.07;15.53;;;-2.30;99.90;;;;;;5051202;28;20448;-65
2022/03/08 01:19:24;;;;;;;18.37;14.30;;;-2.40;99.90;;;;;;5051495;28;20539;-65
2022/03/08 01:21:52;;;;;;;22.00;14.13;;;-2.30;99.90;;;;;;5051246;28;20468;-65
2022/03/08 01:24:19;;;;;;;21.80;15.47;;;-2.30;99.90;;;;;;5051102;28;20452;-65
2022/03/08 01:26:45;;;;;;;20.93;14.40;;;-2.30;99.90;;;;;;5051661;28;20480;-65
2022/03/08 01:29:12;;;;;;;19.73;14.67;;;-2.20;99.90;;;;;;5051398;28;20961;-65
2022/03/08 01:31:39;;;;;;;20.27;14.90;;;-2.30;99.90;;;;;;5051441;28;20482;-65
2022/03/08 01:34:06;;;;;;;19.40;15.10;;;-2.40;99.90;;;;;;5051044;28;20451;-65
2022/03/08 01:36:33;;;;;;;18.93;14.03;;;-2.50;99.90;;;;;;5050958;28;20486;-65
2022/03/08 01:39:02;;;;;;;22.23;16.63;;;-2.60;99.90;;;;;;5051021;28;20452;-65
2022/03/08 01:41:29;;;;;;;20.37;14.60;;;-2.60;99.90;;;;;;5051172;28;20524;-65
2022/03/08 01:43:55;;;;;;;20.50;16.23;;;-2.60;99.90;;;;;;5050769;28;20878;-65
2022/03/08 01:46:22;;;;;;;24.87;16.03;;;-2.70;99.90;;;;;;5050692;28;20492;-65
2022/03/08 01:48:49;;;;;;;20.43;15.13;;;-2.80;99.90;;;;;;5050888;28;20937;-65
2022/03/08 01:51:17;;;;;;;23.15;16.50;;;-2.90;99.90;;;;;;5049948;28;20436;-65
2022/03/08 01:53:44;;;;;;;24.70;17.23;;;-3.00;99.90;;;;;;5050451;28;20208;-65
2022/03/08 01:56:12;;;;;;;26.97;16.97;;;-3.00;99.90;;;;;;5050557;28;20474;-65
2022/03/08 01:58:39;;;;;;;20.73;14.13;;;-3.10;99.90;;;;;;5050768;28;20541;-65
2022/03/08 02:01:07;;;;;;;23.33;17.10;;;-3.10;99.90;;;;;;5050344;28;20471;-65
2022/03/08 02:03:34;;;;;;;22.13;15.47;;;-3.10;99.90;;;;;;5050600;28;20463;-67
2022/03/08 02:06:01;;;;;;;24.60;16.17;;;-3.10;99.90;;;;;;5050202;28;20571;-65
2022/03/08 02:08:28;;;;;;;24.10;16.77;;;-3.10;99.90;;;;;;5050558;28;20448;-65
2022/03/08 02:10:55;;;;;;;25.67;15.53;;;-3.10;99.90;;;;;;5050368;28;20531;-65
2022/03/08 02:13:26;;;;;;;20.60;15.23;;;-3.10;99.90;;;;;;5050743;28;20467;-66
2022/03/08 02:15:53;;;;;;;23.67;14.10;;;-3.10;99.90;;;;;;5049090;28;20458;-65
2022/03/08 02:18:21;;;;;;;21.67;15.23;;;-3.10;99.90;;;;;;5050427;28;20531;-65
2022/03/08 02:20:48;;;;;;;20.10;14.70;;;-3.00;99.90;;;;;;5050102;28;20554;-65
2022/03/08 02:23:16;;;;;;;19.60;13.47;;;-3.00;99.90;;;;;;5050440;28;20444;-65
2022/03/08 02:25:43;;;;;;;22.37;15.53;;;-3.20;99.90;;;;;;5050068;28;20826;-65
2022/03/08 02:28:10;;;;;;;20.10;13.40;;;-3.30;99.90;;;;;;5050505;28;20446;-65
2022/03/08 02:30:37;;;;;;;21.00;14.53;;;-3.20;99.90;;;;;;5050182;28;20466;-65
2022/03/08 02:33:04;;;;;;;24.20;14.20;;;-3.30;99.90;;;;;;5050333;28;20523;-65
2022/03/08 02:35:32;;;;;;;22.13;14.30;;;-3.40;99.90;;;;;;5050200;28;20450;-65
2022/03/08 02:38:02;;;;;;;18.77;14.67;;;-3.40;99.90;;;;;;5050267;28;20439;-66
2022/03/08 02:40:33;;;;;;;19.03;13.13;;;-3.40;99.90;;;;;;5050205;28;20470;-65
2022/03/08 02:43:01;;;;;;;24.30;16.80;;;-3.40;99.90;;;;;;5050079;28;20512;-65
2022/03/08 02:45:28;;;;;;;23.87;15.17;;;-3.50;99.90;;;;;;5049730;28;20534;-65
2022/03/08 02:47:55;;;;;;;20.60;16.63;;;-3.40;99.90;;;;;;5049823;28;20486;-65
2022/03/08 02:50:23;;;;;;;20.80;15.17;;;-3.30;99.90;;;;;;5049972;28;20953;-65
2022/03/08 02:52:52;;;;;;;21.63;14.00;;;-3.30;99.90;;;;;;5050148;28;20850;-65
2022/03/08 02:55:21;;;;;;;21.87;14.17;;;-3.30;99.90;;;;;;5049719;28;20451;-64
2022/03/08 02:57:50;;;;;;;24.07;15.27;;;-3.20;99.90;;;;;;5049969;28;20440;-65
2022/03/08 03:00:19;;;;;;;20.93;15.57;;;-3.30;99.90;;;;;;5050004;28;20499;-65
2022/03/08 03:02:46;;;;;;;21.60;14.00;;;-3.30;99.90;;;;;;5053214;28;20455;-66
2022/03/08 03:05:13;;;;;;;23.77;15.33;;;-3.30;99.90;;;;;;5055057;28;20526;-65
2022/03/08 03:07:41;;;;;;;19.53;13.47;;;-3.30;99.90;;;;;;5055553;28;20483;-65
2022/03/08 03:10:09;;;;;;;18.30;13.73;;;-3.30;99.90;;;;;;5056686;28;20460;-65
2022/03/08 03:12:36;;;;;;;19.60;13.60;;;-3.20;99.90;;;;;;5052089;28;20482;-65
2022/03/08 03:15:06;;;;;;;19.80;14.07;;;-3.20;99.90;;;;;;5051603;28;20451;-65
2022/03/08 03:17:33;;;;;;;24.30;14.90;;;-3.30;99.90;;;;;;5052139;28;20479;-65
2022/03/08 03:20:00;;;;;;;17.80;13.77;;;-3.40;99.90;;;;;;5050675;28;20448;-65
2022/03/08 03:22:27;;;;;;;19.70;13.60;;;-3.40;99.90;;;;;;5050332;28;20470;-65
2022/03/08 03:24:53;;;;;;;19.00;13.87;;;-3.40;99.90;;;;;;5050166;28;20854;-65
2022/03/08 03:27:20;;;;;;;18.80;13.00;;;-3.50;99.90;;;;;;5050884;28;20497;-65
2022/03/08 03:29:47;;;;;;;20.60;14.17;;;-3.50;99.90;;;;;;5053644;28;20450;-65
2022/03/08 03:32:15;;;;;;;18.60;13.53;;;-3.40;99.90;;;;;;5053325;28;20491;-65
2022/03/08 03:34:42;;;;;;;22.30;14.40;;;-3.40;99.90;;;;;;5053068;28;20803;-65
2022/03/08 03:37:09;;;;;;;19.97;13.93;;;-3.50;99.90;;;;;;5053685;28;20885;-65
2022/03/08 03:39:36;;;;;;;18.30;12.77;;;-3.60;99.90;;;;;;5053399;28;20961;-65
2022/03/08 03:42:03;;;;;;;26.03;15.07;;;-3.60;99.90;;;;;;5053201;28;20468;-65
2022/03/08 03:44:30;;;;;;;22.17;14.70;;;-3.70;99.90;;;;;;5053149;28;20444;-65
2022/03/08 03:46:56;;;;;;;20.83;14.90;;;-3.70;99.90;;;;;;5053120;28;20487;-65
2022/03/08 03:49:25;;;;;;;23.40;14.87;;;-3.70;99.90;;;;;;5053069;28;20477;-65
2022/03/08 03:51:53;;;;;;;21.40;14.93;;;-3.70;99.90;;;;;;5052988;28;20470;-65
2022/03/08 03:54:20;;;;;;;23.63;15.30;;;-3.80;99.90;;;;;;5052832;28;20812;-65
2022/03/08 03:56:47;;;;;;;24.90;16.40;;;-3.80;99.90;;;;;;5053217;28;20450;-65
2022/03/08 03:59:15;;;;;;;21.57;16.13;;;-3.80;99.90;;;;;;5052825;28;20455;-65
2022/03/08 04:01:41;;;;;;;23.40;15.80;;;-3.90;99.90;;;;;;5052833;28;20555;-66
2022/03/08 04:04:09;;;;;;;22.90;13.60;;;-3.90;99.90;;;;;;5052599;28;20450;-66
2022/03/08 04:06:37;;;;;;;23.93;15.50;;;-3.90;99.90;;;;;;5052424;28;20476;-65
2022/03/08 04:09:05;;;;;;;23.63;16.27;;;-3.90;99.90;;;;;;5052518;28;20547;-65
2022/03/08 04:11:32;;;;;;;23.40;14.70;;;-4.00;99.90;;;;;;5052820;28;20470;-66
2022/03/08 04:13:59;;;;;;;23.93;16.40;;;-4.00;99.90;;;;;;5052676;28;20451;-66
2022/03/08 04:16:26;;;;;;;22.33;14.80;;;-4.00;99.90;;;;;;5052326;28;20440;-65
2022/03/08 04:18:53;;;;;;;25.00;16.80;;;-4.00;99.90;;;;;;5052493;28;20440;-65
2022/03/08 04:21:20;;;;;;;24.60;16.13;;;-4.00;99.90;;;;;;5052525;28;20466;-65
2022/03/08 04:23:48;;;;;;;19.83;14.70;;;-3.90;99.90;;;;;;5052360;28;20444;-65
2022/03/08 04:26:15;;;;;;;22.30;14.20;;;-3.90;99.90;;;;;;5052303;28;20475;-65
2022/03/08 04:28:42;;;;;;;23.43;13.67;;;-3.90;99.90;;;;;;5052639;28;20491;-66
2022/03/08 04:31:08;;;;;;;25.30;14.57;;;-4.00;99.90;;;;;;5052108;28;20486;-65
2022/03/08 04:33:35;;;;;;;22.50;16.17;;;-4.00;99.90;;;;;;5052147;28;20470;-66
2022/03/08 04:36:03;;;;;;;20.57;14.57;;;-4.00;99.90;;;;;;5051737;28;20686;-65
2022/03/08 04:38:30;;;;;;;23.60;15.40;;;-3.90;99.90;;;;;;5050105;28;20548;-65
2022/03/08 04:40:58;;;;;;;24.30;14.97;;;-3.70;99.90;;;;;;5034661;28;20503;-66
2022/03/08 04:43:25;;;;;;;18.40;13.03;;;-3.70;99.90;;;;;;5038310;28;20456;-65
2022/03/08 04:45:51;;;;;;;22.00;13.00;;;-3.60;99.90;;;;;;5031890;28;20452;-65
2022/03/08 04:48:18;;;;;;;21.00;13.90;;;-3.70;99.90;;;;;;5031988;28;21014;-65
2022/03/08 04:50:45;;;;;;;22.40;14.30;;;-3.80;99.90;;;;;;5032138;28;20472;-66
2022/03/08 04:53:12;;;;;;;22.30;14.67;;;-3.80;99.90;;;;;;5031872;28;20453;-67
2022/03/08 04:55:39;;;;;;;20.93;14.50;;;-4.00;99.90;;;;;;5033520;28;20476;-65
2022/03/08 04:58:07;;;;;;;19.00;12.90;;;-4.00;99.90;;;;;;5032998;28;20942;-66
2022/03/08 05:00:34;;;;;;;25.60;14.63;;;-4.10;99.90;;;;;;5031204;28;20528;-66
2022/03/08 05:03:01;;;;;;;23.77;14.03;;;-4.20;99.90;;;;;;5031702;28;20544;-65
2022/03/08 05:05:29;;;;;;;19.80;12.80;;;-4.20;99.90;;;;;;5031394;28;20457;-65
2022/03/08 05:07:56;;;;;;;19.47;13.93;;;-4.20;99.90;;;;;;5036905;28;20848;-65
2022/03/08 05:10:23;;;;;;;22.40;13.97;;;-4.30;99.90;;;;;;5033486;28;20457;-65
2022/03/08 05:12:50;;;;;;;24.20;15.07;;;-4.40;99.90;;;;;;5031795;28;20536;-65
2022/03/08 05:15:18;;;;;;;19.33;14.00;;;-4.30;99.90;;;;;;5031734;28;20476;-65
2022/03/08 05:17:45;;;;;;;25.37;16.47;;;-4.30;99.90;;;;;;5031714;28;20433;-65
2022/03/08 05:20:13;;;;;;;23.30;15.20;;;-4.40;99.90;;;;;;5031761;28;20475;-65
2022/03/08 05:22:40;;;;;;;24.60;16.37;;;-4.50;99.90;;;;;;5031639;28;20461;-65
2022/03/08 05:25:08;;;;;;;22.03;14.70;;;-4.50;99.90;;;;;;5031614;28;20429;-65
2022/03/08 05:27:35;;;;;;;20.67;13.93;;;-4.50;99.90;;;;;;5031470;28;20986;-66
2022/03/08 05:30:02;;;;;;;18.77;13.90;;;-4.50;99.90;;;;;;5031535;28;20444;-66
2022/03/08 05:32:30;;;;;;;21.80;13.70;;;-4.50;99.90;;;;;;5031349;28;20464;-70
2022/03/08 05:34:57;;;;;;;22.13;14.03;;;-4.50;99.90;;;;;;5044436;28;20444;-67
2022/03/08 05:37:23;;;;;;;23.00;14.80;;;-4.50;99.90;;;;;;5041486;28;20443;-66
2022/03/08 05:39:50;;;;;;;23.00;14.70;;;-4.60;99.90;;;;;;5039797;28;20803;-66
2022/03/08 05:42:17;;;;;;;22.87;14.20;;;-4.50;99.90;;;;;;5032152;28;20465;-66
2022/03/08 05:44:44;;;;;;;18.80;13.90;;;-4.50;99.90;;;;;;5030893;28;20535;-65
2022/03/08 05:47:11;;;;;;;25.23;14.57;;;-4.40;99.90;;;;;;5031112;28;20480;-65
2022/03/08 05:49:39;;;;;;;30.03;20.17;;;-4.40;99.90;;;;;;5029843;28;20453;-64
2022/03/08 05:52:07;;;;;;;30.50;17.80;;;-4.30;99.90;;;;;;5033874;28;20464;-65
2022/03/08 05:54:33;;;;;;;28.37;17.70;;;-4.30;99.90;;;;;;5039631;28;21083;-65
2022/03/08 05:57:00;;;;;;;24.13;17.20;;;-4.30;99.90;;;;;;5039449;28;20937;-65
2022/03/08 05:59:27;;;;;;;24.27;14.43;;;-4.30;99.90;;;;;;5031781;28;20437;-65
2022/03/08 06:01:54;;;;;;;24.00;16.13;;;-4.30;99.90;;;;;;5040159;28;20478;-66
2022/03/08 06:04:21;;;;;;;22.10;13.90;;;-4.30;99.90;;;;;;5031476;28;20457;-66
2022/03/08 06:06:50;;;;;;;23.23;13.93;;;-4.30;99.90;;;;;;5033709;28;20607;-66
2022/03/08 06:09:17;;;;;;;24.33;13.70;;;-4.10;99.90;;;;;;5037615;28;21297;-66
2022/03/08 06:11:44;;;;;;;27.90;15.97;;;-4.00;99.90;;;;;;5038081;28;20471;-65
2022/03/08 06:14:10;;;;;;;20.63;14.07;;;-4.00;99.90;;;;;;5042545;28;20448;-65
2022/03/08 06:16:37;;;;;;;24.20;14.97;;;-3.90;99.90;;;;;;5028112;28;20437;-66
2022/03/08 06:19:04;;;;;;;25.57;16.23;;;-3.90;99.90;;;;;;5028417;28;20491;-65
2022/03/08 06:21:31;;;;;;;19.83;13.83;;;-3.90;99.90;;;;;;5034403;28;20463;-65
2022/03/08 06:23:59;;;;;;;21.73;15.60;;;-3.80;99.90;;;;;;5036618;28;20429;-65
2022/03/08 06:26:26;;;;;;;28.83;15.07;;;-3.60;99.90;;;;;;5035290;28;20539;-65
2022/03/08 06:28:54;;;;;;;21.60;14.93;;;-3.60;99.90;;;;;;5045773;28;20468;-65
2022/03/08 06:31:21;;;;;;;21.47;13.53;;;-3.50;99.90;;;;;;5048735;28;21004;-65
2022/03/08 06:33:48;;;;;;;25.80;13.30;;;-3.50;99.90;;;;;;5048162;28;20440;-65
2022/03/08 06:36:15;;;;;;;19.30;12.60;;;-3.50;99.90;;;;;;5031209;28;20520;-65
2022/03/08 06:38:41;;;;;;;23.27;14.20;;;-3.50;99.90;;;;;;5029951;28;20516;-65
2022/03/08 06:41:10;;;;;;;24.70;14.80;;;-3.40;99.90;;;;;;5029561;28;21020;-65
2022/03/08 06:43:36;;;;;;;20.80;15.37;;;-3.30;99.90;;;;;;5029862;28;20441;-65
2022/03/08 06:46:04;;;;;;;21.20;14.87;;;-3.20;99.90;;;;;;5029882;28;20988;-66
2022/03/08 06:48:31;;;;;;;19.87;13.83;;;-3.20;99.90;;;;;;5029838;28;20986;-65
2022/03/08 06:50:57;;;;;;;19.77;14.23;;;-3.10;99.90;;;;;;5028944;28;20463;-65
2022/03/08 06:53:24;;;;;;;22.13;15.53;;;-3.10;99.90;;;;;;5029617;28;20928;-65
2022/03/08 06:55:51;;;;;;;25.07;16.40;;;-3.00;99.90;;;;;;5029611;28;20803;-65
2022/03/08 06:58:20;;;;;;;25.93;15.30;;;-2.80;99.90;;;;;;5029394;28;20443;-65
2022/03/08 07:00:46;;;;;;;23.13;14.30;;;-2.70;99.90;;;;;;5029861;28;20476;-65
2022/03/08 07:03:13;;;;;;;20.70;14.60;;;-2.50;99.90;;;;;;5032077;28;20449;-65
2022/03/08 07:05:40;;;;;;;21.10;13.87;;;-2.40;99.90;;;;;;5033798;28;20528;-66
2022/03/08 07:08:07;;;;;;;16.43;12.67;;;-2.20;99.90;;;;;;5033930;28;20476;-65
2022/03/08 07:10:34;;;;;;;17.67;12.93;;;-2.10;99.90;;;;;;5033544;28;20443;-65
2022/03/08 07:13:01;;;;;;;20.23;13.30;;;-1.90;99.90;;;;;;5033271;28;20441;-65
2022/03/08 07:15:30;;;;;;;16.47;12.67;;;-1.80;99.90;;;;;;5033312;28;20432;-65
2022/03/08 07:17:56;;;;;;;16.67;11.67;;;-1.70;99.90;;;;;;5034110;28;20433;-66
2022/03/08 07:20:23;;;;;;;21.20;12.43;;;-1.60;99.90;;;;;;5033431;28;20448;-66
2022/03/08 07:22:50;;;;;;;13.70;10.37;;;-1.40;99.90;;;;;;5033527;28;20443;-66
2022/03/08 07:25:17;;;;;;;19.37;11.87;;;-1.20;99.90;;;;;;5032823;28;20979;-66
2022/03/08 07:27:44;;;;;;;15.47;11.63;;;-1.10;99.90;;;;;;5033159;28;20472;-66
2022/03/08 07:30:12;;;;;;;19.97;12.30;;;-0.80;99.90;;;;;;5033146;28;20965;-66
2022/03/08 07:32:40;;;;;;;14.90;11.23;;;-0.60;99.90;;;;;;5033120;28;20456;-66
2022/03/08 07:35:08;;;;;;;16.60;11.50;;;-0.40;99.90;;;;;;5032580;28;20467;-66
2022/03/08 07:37:36;;;;;;;16.37;13.60;;;-0.30;99.90;;;;;;5032802;28;20446;-66
2022/03/08 07:40:05;;;;;;;16.27;12.40;;;-0.20;99.90;;;;;;5032630;28;20459;-66
2022/03/08 07:42:32;;;;;;;15.43;11.77;;;0.00;99.90;;;;;;5032908;28;20461;-66
2022/03/08 07:44:59;;;;;;;16.33;10.23;;;0.10;99.90;;;;;;5032721;28;20441;-66
2022/03/08 07:47:26;;;;;;;14.07;10.50;;;0.30;99.90;;;;;;5032817;28;20531;-66
2022/03/08 07:49:54;;;;;;;12.20;9.80;;;0.50;99.90;;;;;;5032662;28;21093;-66
2022/03/08 07:52:21;;;;;;;14.10;10.70;;;0.60;99.90;;;;;;5032541;28;20467;-66
2022/03/08 07:54:48;;;;;;;14.03;10.07;;;0.80;99.90;;;;;;5032161;28;20537;-66
2022/03/08 07:57:15;;;;;;;20.00;11.20;;;0.90;99.90;;;;;;5032562;28;20784;-66
2022/03/08 07:59:42;;;;;;;14.30;10.13;;;1.10;99.90;;;;;;5032602;28;20465;-66
2022/03/08 08:02:09;;;;;;;14.63;10.80;;;1.20;99.90;;;;;;5032508;28;20464;-66
2022/03/08 08:04:36;;;;;;;13.83;9.90;;;1.40;99.90;;;;;;5032204;28;20443;-66
2022/03/08 08:07:05;;;;;;;13.87;9.73;;;1.50;99.90;;;;;;5032336;28;20538;-66
2022/03/08 08:09:32;;;;;;;14.87;10.43;;;1.60;99.60;;;;;;5032722;28;20487;-66
2022/03/08 08:11:59;;;;;;;14.00;11.60;;;1.70;99.60;;;;;;5032297;28;20472;-66
2022/03/08 08:14:26;;;;;;;12.83;10.50;;;1.80;98.90;;;;;;5032048;28;20437;-66
2022/03/08 08:16:53;;;;;;;11.13;9.10;;;1.90;99.20;;;;;;5032423;28;20441;-66
2022/03/08 08:19:20;;;;;;;13.73;10.80;;;1.90;98.20;;;;;;5032619;28;20947;-66
2022/03/08 08:21:47;;;;;;;12.90;10.43;;;2.00;98.20;;;;;;5032178;28;20497;-66
2022/03/08 08:24:15;;;;;;;11.87;9.47;;;2.10;98.40;;;;;;5032071;28;20445;-66
2022/03/08 08:26:42;;;;;;;15.43;10.37;;;2.20;98.50;;;;;;5032309;28;20548;-66
2022/03/08 08:29:09;;;;;;;15.57;10.07;;;2.30;98.00;;;;;;5032037;28;20576;-66
2022/03/08 08:31:36;;;;;;;13.43;10.10;;;2.50;98.70;;;;;;5031880;28;20905;-66
2022/03/08 08:34:03;;;;;;;14.27;11.53;;;2.60;98.20;;;;;;5031981;28;20536;-66
2022/03/08 08:36:30;;;;;;;11.40;9.13;;;2.80;97.30;;;;;;5032241;28;20437;-66
2022/03/08 08:38:57;;;;;;;14.77;10.97;;;3.00;97.10;;;;;;5031871;28;20455;-66
2022/03/08 08:41:25;;;;;;;11.67;9.77;;;3.10;97.00;;;;;;5031841;28;20471;-66
2022/03/08 08:43:52;;;;;;;12.87;10.50;;;3.30;96.50;;;;;;5031759;28;20436;-66
2022/03/08 08:46:19;;;;;;;13.47;10.10;;;3.60;97.40;;;;;;5031881;28;20441;-66
2022/03/08 08:48:46;;;;;;;12.07;10.20;;;3.80;97.10;;;;;;5031670;28;20477;-66
2022/03/08 08:51:12;;;;;;;13.90;10.87;;;4.20;95.90;;;;;;5032991;28;20460;-66
2022/03/08 08:53:39;;;;;;;14.90;11.20;;;4.50;94.60;;;;;;5037010;28;20547;-66
2022/03/08 08:56:06;;;;;;;13.00;10.10;;;4.90;94.00;;;;;;5035303;28;20806;-66
2022/03/08 08:58:35;;;;;;;15.90;10.33;;;5.10;94.30;;;;;;5037124;28;20448;-66
2022/03/08 09:01:01;;;;;;;12.83;10.03;;;5.40;93.90;;;;;;5034978;28;20511;-66
2022/03/08 09:03:28;;;;;;;15.43;8.73;;;5.70;93.30;;;;;;5031697;28;20441;-66
2022/03/08 09:05:55;;;;;;;10.60;9.60;;;6.00;91.90;;;;;;5031383;28;20471;-66
2022/03/08 09:08:24;;;;;;;8.50;7.60;;;6.40;92.00;;;;;;5033247;28;20524;-66
2022/03/08 09:10:51;;;;;;;9.10;8.00;;;6.60;91.30;;;;;;5032591;28;20504;-66
2022/03/08 09:13:18;;;;;;;9.43;8.30;;;7.00;90.80;;;;;;5032203;28;20437;-66
2022/03/08 09:15:47;;;;;;;10.80;8.13;;;7.20;90.10;;;;;;5031352;28;20444;-66
2022/03/08 09:18:13;;;;;;;9.33;8.40;;;7.30;88.50;;;;;;5033810;28;20524;-67
2022/03/08 09:20:41;;;;;;;8.20;7.40;;;7.80;88.40;;;;;;5033440;28;20436;-66
2022/03/08 09:23:08;;;;;;;8.37;7.40;;;8.30;86.10;;;;;;5031706;28;20479;-66
2022/03/08 09:25:35;;;;;;;9.40;8.40;;;8.70;83.10;;;;;;5030380;28;20539;-66
2022/03/08 09:28:02;;;;;;;10.40;7.23;;;9.10;82.50;;;;;;5030986;28;20441;-66
2022/03/08 09:30:31;;;;;;;7.53;6.60;;;9.00;79.50;;;;;;5031142;28;20453;-66
2022/03/08 09:33:01;;;;;;;8.70;6.70;;;9.00;78.10;;;;;;5031954;28;20540;-67
2022/03/08 09:35:29;;;;;;;7.60;6.30;;;8.80;77.20;;;;;;5031883;28;20947;-66
2022/03/08 09:37:57;;;;;;;8.10;6.37;;;8.70;78.10;;;;;;5031518;28;20448;-66
2022/03/08 09:40:25;;;;;;;7.43;6.63;;;8.70;77.40;;;;;;5032483;28;20479;-67
2022/03/08 09:42:52;;;;;;;7.53;6.40;;;9.00;77.50;;;;;;5032066;28;21002;-67
2022/03/08 09:45:20;;;;;;;7.70;6.20;;;8.90;76.10;;;;;;5030832;28;20453;-67
2022/03/08 09:47:47;;;;;;;6.40;5.70;;;9.10;76.10;;;;;;5031383;28;20846;-66
2022/03/08 09:50:16;;;;;;;6.87;6.17;;;9.30;75.40;;;;;;5030798;28;20483;-67
2022/03/08 09:52:43;;;;;;;8.13;6.23;;;9.40;74.10;;;;;;5030932;28;20461;-66
2022/03/08 09:55:12;;;;;;;7.63;6.07;;;9.50;72.90;;;;;;5030487;28;20495;-66
2022/03/08 09:57:39;;;;;;;8.47;7.13;;;9.70;72.00;;;;;;5030504;28;20473;-66
2022/03/08 10:00:09;;;;;;;6.80;6.10;;;9.80;71.60;;;;;;5030836;28;20440;-67
2022/03/08 10:02:46;;;;;;;7.53;5.83;;;9.80;71.00;;;;;;5030694;28;20465;-68
2022/03/08 10:05:13;;;;;;;8.13;6.70;;;10.10;68.60;;;;;;5030362;28;20961;-66
2022/03/08 10:08:01;;;;;;;11.80;6.47;;;10.20;69.10;;;;;;5030627;28;20440;-66
2022/03/08 10:10:31;;;;;;;9.77;6.80;;;10.30;66.80;;;;;;5030571;28;20922;-67
2022/03/08 10:12:58;;;;;;;7.63;6.83;;;10.50;67.30;;;;;;5030618;28;20977;-66
2022/03/08 10:15:26;;;;;;;6.73;6.03;;;10.80;66.00;;;;;;5030234;28;20441;-67
2022/03/08 10:17:52;;;;;;;8.03;6.07;;;11.00;64.00;;;;;;5030553;28;20811;-66
2022/03/08 10:20:29;;;;;;;7.20;5.90;;;11.10;62.40;;;;;;5030280;28;20469;-67
2022/03/08 10:22:58;;;;;;;8.50;6.10;;;11.10;62.20;;;;;;5030606;28;20432;-67
2022/03/08 10:25:27;;;;;;;6.50;5.57;;;11.10;62.50;;;;;;5030427;28;20437;-67
2022/03/08 10:28:03;;;;;;;6.20;5.60;;;11.20;60.60;;;;;;5030602;28;20473;-66
2022/03/08 10:30:46;;;;;;;7.83;6.30;;;11.40;61.30;;;;;;5030257;28;20559;-67
2022/03/08 10:33:19;;;;;;;6.97;5.23;;;11.70;59.70;;;;;;5030285;28;20444;-66
2022/03/08 10:35:47;;;;;;;9.03;6.30;;;11.90;59.90;;;;;;5030337;28;20437;-67
2022/03/08 10:38:15;;;;;;;6.90;5.67;;;11.90;58.90;;;;;;5029241;28;20523;-67
2022/03/08 10:40:43;;;;;;;6.60;5.13;;;12.20;57.30;;;;;;5030158;28;20441;-67
2022/03/08 10:43:13;;;;;;;6.83;5.60;;;12.40;57.70;;;;;;5030231;28;20946;-67
2022/03/08 10:45:42;;;;;;;6.70;5.27;;;12.90;57.10;;;;;;5029849;28;20445;-67
2022/03/08 10:48:10;;;;;;;8.13;5.97;;;13.40;57.10;;;;;;5030359;28;20449;-67
2022/03/08 10:50:38;;;;;;;10.23;6.37;;;13.30;56.20;;;;;;5030239;28;20484;-67
2022/03/08 10:53:07;;;;;;;10.40;5.73;;;13.00;56.00;;;;;;5030011;28;20452;-67
2022/03/08 10:55:36;;;;;;;6.53;5.30;;;13.30;55.10;;;;;;5030032;28;20491;-67
2022/03/08 10:58:07;;;;;;;6.40;4.90;;;13.40;54.70;;;;;;5030423;28;20446;-66
2022/03/08 11:00:38;;;;;;;7.33;5.17;;;13.70;55.40;;;;;;5030146;28;20491;-67
2022/03/08 11:03:07;;;;;;;6.40;5.07;;;13.90;53.80;;;;;;5030044;28;20527;-67
2022/03/08 11:05:35;;;;;;;8.43;5.20;;;14.00;52.40;;;;;;5030113;28;20467;-67
2022/03/08 11:08:02;;;;;;;8.43;5.57;;;14.20;51.90;;;;;;5030454;28;20479;-66
2022/03/08 11:10:30;;;;;;;7.03;4.80;;;14.10;50.40;;;;;;5029994;28;21076;-67
2022/03/08 11:12:59;;;;;;;8.50;5.57;;;14.10;50.90;;;;;;5030442;28;20470;-68
2022/03/08 11:15:28;;;;;;;8.53;6.17;;;14.30;50.80;;;;;;5029744;28;21013;-67
2022/03/08 11:17:56;;;;;;;6.00;5.40;;;14.60;50.50;;;;;;5030433;28;20444;-67
2022/03/08 11:20:24;;;;;;;7.10;5.43;;;15.30;49.90;;;;;;5029981;28;20491;-66
2022/03/08 11:22:53;;;;;;;7.10;5.67;;;15.50;49.00;;;;;;5029790;28;20437;-67
2022/03/08 11:25:20;;;;;;;6.80;5.63;;;15.40;48.10;;;;;;5029781;28;20449;-67
2022/03/08 11:27:49;;;;;;;9.10;5.80;;;15.10;48.50;;;;;;5029982;28;20814;-67
2022/03/08 11:30:20;;;;;;;8.30;5.33;;;15.20;49.30;;;;;;5029843;28;20834;-67
2022/03/08 11:32:54;;;;;;;6.17;4.57;;;15.40;47.50;;;;;;5029734;28;20979;-67
2022/03/08 11:35:28;;;;;;;6.53;5.37;;;15.30;47.00;;;;;;5029460;28;20643;-67
2022/03/08 11:37:55;;;;;;;5.90;4.73;;;15.70;47.30;;;;;;5035466;28;20960;-67
2022/03/08 11:40:24;;;;;;;11.30;4.60;;;15.70;46.00;;;;;;5043447;28;20440;-67
2022/03/08 11:42:54;;;;;;;6.97;5.20;;;16.00;46.00;;;;;;5048637;28;20448;-68
2022/03/08 11:45:25;;;;;;;5.77;5.20;;;16.00;45.60;;;;;;5048987;28;20440;-67
2022/03/08 11:47:56;;;;;;;7.47;5.00;;;16.30;45.20;;;;;;5049799;28;20527;-67
2022/03/08 11:50:27;;;;;;;5.90;5.30;;;16.30;45.30;;;;;;5053261;28;20479;-67
2022/03/08 11:53:06;;;;;;;6.20;5.60;;;16.50;45.10;;;;;;5053060;28;20437;-67
2022/03/08 11:55:35;;;;;;;6.60;5.10;;;16.90;44.20;;;;;;5052812;28;20918;-67
2022/03/08 11:58:04;;;;;;;11.73;5.40;;;17.50;44.00;;;;;;5053069;28;20443;-67
2022/03/08 12:00:42;;;;;;;6.83;5.20;;;18.00;44.10;;;;;;5053058;28;20443;-67
2022/03/08 12:03:15;;;;;;;5.90;5.17;;;17.70;42.50;;;;;;5053271;28;20428;-67
2022/03/08 12:05:59;;;;;;;9.90;5.50;;;17.90;43.30;;;;;;5052638;28;20436;-67
2022/03/08 12:08:42;;;;;;;5.60;4.63;;;17.90;42.30;;;;;;5052902;28;20431;-67
2022/03/08 12:11:32;;;;;;;7.13;4.97;;;17.90;41.50;;;;;;5052740;28;20494;-67
2022/03/08 12:14:14;;;;;;;7.90;5.60;;;18.30;41.50;;;;;;5052859;28;20527;-67
2022/03/08 12:16:44;;;;;;;7.90;5.37;;;18.90;42.00;;;;;;5052598;28;20591;-67
2022/03/08 12:19:13;;;;;;;12.73;5.70;;;18.80;40.10;;;;;;5052329;28;20471;-67
2022/03/08 12:21:42;;;;;;;7.60;5.50;;;19.00;39.70;;;;;;5052808;28;20456;-67
2022/03/08 12:24:19;;;;;;;7.10;5.20;;;18.90;39.70;;;;;;5052520;28;20446;-67
2022/03/08 12:27:02;;;;;;;7.23;4.90;;;19.50;40.10;;;;;;5052542;28;20527;-67
2022/03/08 12:29:33;;;;;;;8.00;4.30;;;20.30;38.50;;;;;;5052117;28;21015;-67
2022/03/08 12:32:29;;;;;;;8.33;6.23;;;20.30;37.50;;;;;;5052405;28;20914;-67
2022/03/08 12:34:59;;;;;;;5.90;5.13;;;19.70;37.80;;;;;;5038776;28;20933;-67
2022/03/08 12:37:29;;;;;;;8.43;5.50;;;20.00;38.30;;;;;;5052098;28;20926;-67